Terminal Aerodrome Forecast
Issued by NWS

Home | Current Version | Previous Version | Text Only | Print | Product List | Glossary On
Versions: 1 2 3 4 5 6 7 8 9 10 11 12 13 14 15
000
FTUS45 KBOU 202330
TAFBJC
TAF
KBJC 202330Z 2100/2124 08007KT P6SM FEW090
     FM210200 11006KT P6SM SKC
     FM210400 VRB05KT P6SM SKC
     FM210800 29006KT P6SM SKC
     FM211500 VRB04KT P6SM SKC
     FM211800 11008KT P6SM FEW090=

USA.gov is the U.S. government's official web portal to all federal, state and local government web resources and services.